Time;durP1;ratioP1;P1;durP2;ratioP2;P2;SDS_P1;SDS_P2;PMS_P1;PMS_P2;Temp;Humidity;BMP_temperature;BMP_pressure;BME280_temperature;BME280_humidity;BME280_pressure;Samples;Min_cycle;Max_cycle;Signal;HPM_P1;HPM_P2
2024/02/14 00:00:14;;;;;;;11.35;6.97;;;;;;;1.64;100.00;97151.03;5002767;28;20049;-68
2024/02/14 00:02:49;;;;;;;12.27;7.03;;;;;;;1.64;100.00;97145.63;5005274;28;20041;-69
2024/02/14 00:05:15;;;;;;;15.15;6.78;;;;;;;1.68;100.00;97147.44;5012990;28;20096;-68
2024/02/14 00:07:40;;;;;;;12.25;6.97;;;;;;;1.66;100.00;97154.25;5022465;28;20041;-69
2024/02/14 00:10:06;;;;;;;13.00;6.70;;;;;;;1.61;100.00;97159.75;5000578;28;20037;-69
2024/02/14 00:12:35;;;;;;;13.32;6.57;;;;;;;1.56;100.00;97157.13;5000739;28;20042;-69
2024/02/14 00:15:07;;;;;;;14.25;7.05;;;;;;;1.52;100.00;97165.81;5005462;28;20033;-69
2024/02/14 00:17:33;;;;;;;10.35;6.22;;;;;;;1.42;100.00;97162.47;5020948;28;20049;-70
2024/02/14 00:20:03;;;;;;;11.85;6.20;;;;;;;1.13;100.00;97161.59;5021710;28;20037;-69
2024/02/14 00:22:28;;;;;;;;;;;;;;;1.10;100.00;97172.97;5021989;28;20038;-69
2024/02/14 00:24:54;;;;;;;9.33;5.53;;;;;;;1.13;100.00;97172.41;4989498;28;20388;-69
2024/02/14 00:27:19;;;;;;;10.57;5.57;;;;;;;1.12;100.00;97173.47;5010742;28;20588;-69
2024/02/14 00:29:46;;;;;;;13.32;6.85;;;;;;;1.03;100.00;97172.53;5003149;28;20053;-68
2024/02/14 00:32:12;;;;;;;10.82;6.63;;;;;;;1.02;100.00;97179.03;4998526;28;20046;-69
2024/02/14 00:34:38;;;;;;;16.85;7.13;;;;;;;1.14;100.00;97182.06;5039673;28;20052;-69
2024/02/14 00:37:03;;;;;;;9.65;6.25;;;;;;;1.27;100.00;97179.72;4996742;28;20551;-70
2024/02/14 00:39:29;;;;;;;13.60;6.68;;;;;;;1.44;100.00;97179.19;5019659;28;20046;-69
2024/02/14 00:41:55;;;;;;;13.25;6.47;;;;;;;1.52;100.00;97175.81;5014503;28;20042;-70
2024/02/14 00:44:21;;;;;;;9.80;6.18;;;;;;;1.56;100.00;97182.22;5018584;28;20566;-69
2024/02/14 00:46:48;;;;;;;13.88;6.15;;;;;;;1.56;100.00;97181.41;5006560;28;20037;-70
2024/02/14 00:49:13;;;;;;;10.07;6.28;;;;;;;1.46;100.00;97177.81;5020388;28;20039;-69
2024/02/14 00:51:39;;;;;;;11.13;5.55;;;;;;;1.18;100.00;97185.00;4990216;28;20149;-68
2024/02/14 00:54:05;;;;;;;12.95;6.07;;;;;;;1.12;100.00;97189.66;4991919;28;20411;-70
2024/02/14 00:56:31;;;;;;;14.73;6.15;;;;;;;1.39;100.00;97181.94;5013754;28;20046;-69
2024/02/14 00:58:56;;;;;;;10.20;5.85;;;;;;;1.38;100.00;97178.47;5022324;28;20119;-69
2024/02/14 01:01:22;;;;;;;12.98;7.25;;;;;;;0.64;100.00;97179.03;5000810;28;20603;-69
2024/02/14 01:03:47;;;;;;;11.45;6.53;;;;;;;0.33;100.00;97176.72;5022214;28;20466;-69
2024/02/14 01:06:14;;;;;;;12.20;6.70;;;;;;;0.09;100.00;97192.09;5008800;28;20042;-69
2024/02/14 01:08:41;;;;;;;13.45;7.25;;;;;;;0.11;100.00;97195.28;5013449;28;20038;-70
2024/02/14 01:11:06;;;;;;;16.35;7.10;;;;;;;0.15;100.00;97194.44;5009018;28;20045;-68
2024/02/14 01:13:32;;;;;;;11.25;6.80;;;;;;;0.34;100.00;97201.75;5016577;28;20052;-69
2024/02/14 01:15:57;;;;;;;14.25;7.10;;;;;;;0.53;100.00;97201.81;5016328;28;20084;-69
2024/02/14 01:18:23;;;;;;;13.68;6.93;;;;;;;0.54;100.00;97201.53;5011445;28;20438;-67
2024/02/14 01:20:48;;;;;;;10.27;6.68;;;;;;;0.74;100.00;97207.75;5023176;28;20488;-68
2024/02/14 01:23:13;;;;;;;11.23;6.85;;;;;;;0.95;100.00;97208.25;5010855;28;20134;-68
2024/02/14 01:25:39;;;;;;;10.10;6.07;;;;;;;1.10;100.00;97209.94;5011355;28;20049;-68
2024/02/14 01:28:05;;;;;;;9.93;6.40;;;;;;;1.15;100.00;97201.75;5022845;28;20038;-67
2024/02/14 01:30:30;;;;;;;12.00;6.07;;;;;;;1.25;100.00;97214.31;5028875;28;20064;-70
2024/02/14 01:32:56;;;;;;;10.98;5.55;;;;;;;1.32;100.00;97218.22;5022585;28;20034;-69
2024/02/14 01:35:21;;;;;;;13.57;6.00;;;;;;;1.20;100.00;97220.56;5027339;28;20041;-69
2024/02/14 01:37:47;;;;;;;9.30;5.35;;;;;;;1.19;100.00;97215.47;5015465;28;20148;-70
2024/02/14 01:40:12;;;;;;;9.80;5.43;;;;;;;1.29;100.00;97218.00;5015421;28;20034;-70
2024/02/14 01:42:38;;;;;;;11.82;5.93;;;;;;;1.46;100.00;97214.78;5020431;28;20570;-69
2024/02/14 01:45:04;;;;;;;9.82;5.75;;;;;;;1.42;100.00;97208.38;5010338;28;20060;-69
2024/02/14 01:47:32;;;;;;;11.40;6.05;;;;;;;1.26;100.00;97208.63;5015872;28;20042;-69
2024/02/14 01:49:58;;;;;;;12.63;6.32;;;;;;;1.26;100.00;97205.94;5025488;28;20083;-68
2024/02/14 01:52:24;;;;;;;10.98;6.03;;;;;;;1.37;100.00;97211.97;5020988;28;20041;-69
2024/02/14 01:54:51;;;;;;;12.27;5.68;;;;;;;1.40;100.00;97200.56;5021847;28;20030;-69
2024/02/14 01:57:17;;;;;;;11.85;6.28;;;;;;;1.36;100.00;97204.16;5014098;28;20037;-69
2024/02/14 01:59:43;;;;;;;9.77;5.80;;;;;;;1.29;100.00;97205.31;5014978;28;20037;-69
2024/02/14 02:02:09;;;;;;;9.30;5.40;;;;;;;1.37;100.00;97203.03;5017990;28;20103;-69
2024/02/14 02:04:35;;;;;;;9.95;5.88;;;;;;;1.40;100.00;97202.47;5014303;28;20041;-68
2024/02/14 02:07:00;;;;;;;12.80;6.28;;;;;;;1.22;100.00;97196.00;5020649;28;20049;-69
2024/02/14 02:09:26;;;;;;;11.05;5.32;;;;;;;1.18;100.00;97200.38;5000407;28;20048;-69
2024/02/14 02:11:56;;;;;;;10.18;5.68;;;;;;;1.37;100.00;97206.56;5013835;28;20065;-69
2024/02/14 02:14:21;;;;;;;10.93;5.78;;;;;;;1.54;100.00;97192.50;5010563;28;20236;-69
2024/02/14 02:16:47;;;;;;;12.30;6.15;;;;;;;1.58;100.00;97192.72;5005791;28;20045;-67
2024/02/14 02:19:15;;;;;;;11.70;5.95;;;;;;;1.63;100.00;97187.25;5009520;28;20041;-68
2024/02/14 02:21:45;;;;;;;10.10;5.70;;;;;;;1.67;100.00;97182.84;5013260;28;20068;-69
2024/02/14 02:24:11;;;;;;;11.85;5.50;;;;;;;1.73;100.00;97192.47;4994831;28;20037;-69
2024/02/14 02:26:37;;;;;;;12.25;5.55;;;;;;;1.75;100.00;97179.47;5000487;28;20076;-69
2024/02/14 02:29:02;;;;;;;9.88;5.40;;;;;;;1.84;100.00;97177.69;5013291;28;20034;-68
2024/02/14 02:31:27;;;;;;;9.35;5.07;;;;;;;1.98;100.00;97182.28;5023251;28;20106;-69
2024/02/14 02:33:53;;;;;;;9.05;5.15;;;;;;;1.96;100.00;97190.69;5029275;28;20041;-70
2024/02/14 02:36:18;;;;;;;10.57;5.70;;;;;;;1.84;100.00;97180.38;5022028;28;20115;-68
2024/02/14 02:38:44;;;;;;;10.57;6.15;;;;;;;1.69;100.00;97177.94;5020101;28;20057;-68
2024/02/14 02:41:09;;;;;;;10.88;5.57;;;;;;;1.42;100.00;97181.38;5012677;28;20056;-68
2024/02/14 02:43:34;;;;;;;11.23;6.22;;;;;;;1.09;100.00;97184.84;4998333;28;20052;-69
2024/02/14 02:46:01;;;;;;;12.73;6.65;;;;;;;1.06;100.00;97182.75;5021019;28;20056;-69
2024/02/14 02:48:26;;;;;;;9.80;5.55;;;;;;;0.95;100.00;97179.41;5008074;28;20129;-69
2024/02/14 02:50:52;;;;;;;13.15;5.95;;;;;;;0.79;100.00;97179.91;5020358;28;20057;-67
2024/02/14 02:53:18;;;;;;;10.90;6.32;;;;;;;0.74;100.00;97176.19;4999911;28;20049;-68
2024/02/14 02:55:43;;;;;;;11.40;6.82;;;;;;;0.89;100.00;97187.84;5003170;28;20527;-69
2024/02/14 02:58:09;;;;;;;12.32;7.18;;;;;;;0.90;100.00;97184.06;5009177;28;20200;-69
2024/02/14 03:00:35;;;;;;;12.15;6.88;;;;;;;0.95;100.00;97179.41;4988777;28;20045;-69
2024/02/14 03:03:02;;;;;;;13.77;7.15;;;;;;;0.92;100.00;97184.59;5010409;28;20111;-69
2024/02/14 03:05:31;;;;;;;10.65;6.32;;;;;;;0.83;100.00;97183.63;4989411;28;20056;-69
2024/02/14 03:07:58;;;;;;;17.63;8.75;;;;;;;0.63;100.00;97173.91;5015629;28;20065;-69
2024/02/14 03:10:24;;;;;;;12.60;7.28;;;;;;;0.75;100.00;97176.97;4981642;28;20041;-69
2024/02/14 03:12:51;;;;;;;15.10;7.72;;;;;;;0.84;100.00;97185.22;5009906;28;20107;-68
2024/02/14 03:15:17;;;;;;;11.18;7.05;;;;;;;0.89;100.00;97187.84;5016230;28;20033;-68
2024/02/14 03:17:42;;;;;;;11.10;7.35;;;;;;;1.00;100.00;97189.31;5013865;28;20038;-68
2024/02/14 03:20:14;;;;;;;16.25;7.93;;;;;;;1.03;100.00;97185.25;5016789;28;20041;-68
2024/02/14 03:22:47;;;;;;;13.65;8.38;;;;;;;1.06;100.00;97187.34;5007461;28;20125;-69
2024/02/14 03:25:19;;;;;;;17.42;8.05;;;;;;;1.07;100.00;97194.34;4999951;28;20042;-69
2024/02/14 03:27:47;;;;;;;18.17;8.05;;;;;;;1.06;100.00;97200.81;5008773;28;20038;-69
2024/02/14 03:30:12;;;;;;;24.20;7.35;;;;;;;1.05;100.00;97201.94;4982925;28;20040;-68
2024/02/14 03:32:38;;;;;;;11.20;7.38;;;;;;;1.27;100.00;97201.31;5017574;28;20034;-68
2024/02/14 03:35:04;;;;;;;15.25;7.50;;;;;;;0.98;100.00;97196.09;4998685;28;20040;-68
2024/02/14 03:37:30;;;;;;;13.52;7.10;;;;;;;0.78;100.00;97183.72;4989361;28;20065;-68
2024/02/14 03:39:55;;;;;;;11.95;7.20;;;;;;;0.80;100.00;97184.22;4992660;28;20045;-68
2024/02/14 03:42:21;;;;;;;10.73;7.20;;;;;;;0.83;100.00;97181.75;5008779;28;20845;-68
2024/02/14 03:44:46;;;;;;;17.15;8.10;;;;;;;0.82;100.00;97187.41;5026607;28;20049;-68
2024/02/14 03:47:13;;;;;;;13.18;7.15;;;;;;;0.82;100.00;97201.69;5010607;28;20038;-67
2024/02/14 03:49:40;;;;;;;13.57;6.88;;;;;;;0.73;100.00;97195.34;5001121;28;20046;-68
2024/02/14 03:52:09;;;;;;;13.80;7.10;;;;;;;0.70;100.00;97188.66;5023720;28;20120;-68
2024/02/14 03:54:36;;;;;;;14.73;7.40;;;;;;;0.63;100.00;97192.78;5027641;28;20060;-67
2024/02/14 03:57:04;;;;;;;16.75;7.90;;;;;;;0.59;100.00;97195.25;5023407;28;20133;-68
2024/02/14 03:59:30;;;;;;;13.65;7.60;;;;;;;0.60;100.00;97199.56;5008018;28;20136;-68
2024/02/14 04:01:58;;;;;;;12.10;6.85;;;;;;;0.75;100.00;97193.97;5025385;28;20037;-68
2024/02/14 04:04:23;;;;;;;14.52;7.00;;;;;;;0.90;100.00;97201.06;5003546;28;20037;-67
2024/02/14 04:06:48;;;;;;;9.40;5.78;;;;;;;1.05;100.00;97213.50;5017932;28;20041;-67
2024/02/14 04:09:14;;;;;;;9.32;6.32;;;;;;;1.16;100.00;97216.88;5020196;28;20041;-68
2024/02/14 04:11:39;;;;;;;8.77;6.00;;;;;;;1.30;100.00;97216.94;5009186;28;20042;-69
2024/02/14 04:14:05;;;;;;;10.05;6.40;;;;;;;1.29;100.00;97218.81;5020758;28;20041;-68
2024/02/14 04:16:30;;;;;;;15.25;6.43;;;;;;;1.28;100.00;97211.03;5007510;28;20504;-68
2024/02/14 04:18:56;;;;;;;8.88;6.25;;;;;;;1.24;100.00;97207.28;5023390;28;20046;-68
2024/02/14 04:21:21;;;;;;;9.90;6.20;;;;;;;1.24;100.00;97223.50;5002983;28;20663;-70
2024/02/14 04:23:46;;;;;;;10.30;6.72;;;;;;;1.40;100.00;97226.75;5023897;28;20145;-69
2024/02/14 04:26:21;;;;;;;10.13;5.80;;;;;;;1.65;100.00;97220.16;5002348;28;20483;-69
2024/02/14 04:28:47;;;;;;;10.30;5.82;;;;;;;1.76;100.00;97212.66;5019042;28;20057;-69
2024/02/14 04:31:12;;;;;;;10.20;6.20;;;;;;;1.73;100.00;97219.47;5014942;28;20045;-69
2024/02/14 04:33:37;;;;;;;11.52;6.85;;;;;;;1.59;100.00;97227.53;5004404;28;20046;-69
2024/02/14 04:36:05;;;;;;;8.60;6.18;;;;;;;1.51;100.00;97223.63;5001423;28;20052;-69
2024/02/14 04:38:30;;;;;;;10.20;6.35;;;;;;;1.65;100.00;97233.66;5023138;28;20146;-70
2024/02/14 04:40:57;;;;;;;11.68;6.50;;;;;;;1.65;100.00;97222.84;5014800;28;20077;-68
2024/02/14 04:43:22;;;;;;;11.15;5.60;;;;;;;1.65;100.00;97233.66;4994890;28;20034;-68
2024/02/14 04:45:47;;;;;;;10.63;6.03;;;;;;;1.62;100.00;97232.34;5019851;28;20392;-68
2024/02/14 04:48:13;;;;;;;12.80;6.28;;;;;;;1.63;100.00;97227.75;4990825;28;20026;-69
2024/02/14 04:50:39;;;;;;;9.90;6.45;;;;;;;1.63;100.00;97216.94;5015490;28;20064;-68
2024/02/14 04:53:04;;;;;;;10.82;6.50;;;;;;;1.51;100.00;97212.00;5014460;28;20052;-67
2024/02/14 04:55:30;;;;;;;14.55;6.50;;;;;;;1.27;100.00;97207.50;5019728;28;20037;-70
2024/02/14 04:57:55;;;;;;;12.48;6.65;;;;;;;1.21;100.00;97208.69;5016930;28;20034;-68
2024/02/14 05:00:20;;;;;;;11.75;6.35;;;;;;;1.14;100.00;97210.97;5012102;28;20570;-69
2024/02/14 05:02:46;;;;;;;11.95;6.07;;;;;;;1.14;100.00;97211.75;5018308;28;20049;-68
2024/02/14 05:05:11;;;;;;;10.50;6.72;;;;;;;1.13;100.00;97207.47;5007983;28;20395;-69
2024/02/14 05:07:37;;;;;;;10.82;6.55;;;;;;;1.14;100.00;97210.97;5023986;28;20046;-69
2024/02/14 05:10:02;;;;;;;12.13;6.38;;;;;;;1.19;100.00;97218.16;5013835;28;20046;-70
2024/02/14 05:12:28;;;;;;;13.70;6.43;;;;;;;1.28;100.00;97217.22;5011191;28;20065;-69
2024/02/14 05:14:53;;;;;;;9.57;6.22;;;;;;;1.50;100.00;97227.41;5004012;28;20066;-69
2024/02/14 05:17:19;;;;;;;9.48;6.40;;;;;;;1.67;100.00;97221.44;5014997;28;20080;-69
2024/02/14 05:19:44;;;;;;;13.15;7.55;;;;;;;1.82;100.00;97224.97;5015686;28;20045;-68
2024/02/14 05:22:09;;;;;;;11.80;6.78;;;;;;;1.96;100.00;97225.81;5012188;28;20508;-69
2024/02/14 05:24:37;;;;;;;12.55;7.80;;;;;;;2.05;100.00;97234.03;5012303;28;20046;-68
2024/02/14 05:27:04;;;;;;;14.68;8.32;;;;;;;2.16;100.00;97238.19;5005102;28;20522;-70
2024/02/14 05:29:29;;;;;;;14.00;7.95;;;;;;;2.23;100.00;97241.28;5004662;28;20053;-69
2024/02/14 05:31:55;;;;;;;19.25;7.88;;;;;;;2.29;100.00;97247.38;5017185;28;20037;-69
2024/02/14 05:34:21;;;;;;;12.88;7.47;;;;;;;2.36;100.00;97238.88;5012904;28;20645;-68
2024/02/14 05:36:46;;;;;;;17.45;7.28;;;;;;;2.28;100.00;97232.25;5027434;28;20148;-69
2024/02/14 05:39:12;;;;;;;12.07;6.72;;;;;;;2.24;100.00;97228.56;4993890;28;20067;-69
2024/02/14 05:41:37;;;;;;;8.85;6.50;;;;;;;2.04;100.00;97233.25;5020804;28;20038;-68
2024/02/14 05:44:03;;;;;;;14.15;6.78;;;;;;;2.12;100.00;97244.47;4993553;28;20045;-67
2024/02/14 05:46:29;;;;;;;11.55;6.65;;;;;;;2.21;100.00;97240.75;5010753;28;20049;-68
2024/02/14 05:48:55;;;;;;;13.50;6.93;;;;;;;2.32;100.00;97254.09;5001537;28;20133;-68
2024/02/14 05:51:20;;;;;;;15.48;7.18;;;;;;;2.37;100.00;97252.09;5006034;28;20042;-68
2024/02/14 05:53:46;;;;;;;12.23;6.15;;;;;;;2.43;100.00;97255.50;5011740;28;20038;-68
2024/02/14 05:56:11;;;;;;;12.05;6.40;;;;;;;2.42;100.00;97254.69;4988158;28;20041;-68
2024/02/14 05:58:36;;;;;;;14.13;6.32;;;;;;;2.48;100.00;97260.81;5005153;28;20049;-68
2024/02/14 06:01:02;;;;;;;11.98;6.18;;;;;;;2.57;100.00;97259.00;5000726;28;20785;-68
2024/02/14 06:03:28;;;;;;;9.65;5.93;;;;;;;2.67;100.00;97263.41;5013545;28;20034;-68
2024/02/14 06:05:54;;;;;;;12.02;5.95;;;;;;;2.65;100.00;97261.00;5013243;28;20058;-69
2024/02/14 06:08:20;;;;;;;13.07;6.40;;;;;;;2.55;100.00;97263.13;4999052;28;20030;-70
2024/02/14 06:10:47;;;;;;;12.50;6.28;;;;;;;2.23;100.00;97268.31;5005695;28;20065;-69
2024/02/14 06:13:13;;;;;;;10.30;6.25;;;;;;;2.25;100.00;97262.59;5000018;28;20038;-69
2024/02/14 06:15:38;;;;;;;12.10;6.93;;;;;;;2.10;100.00;97261.75;5011536;28;20042;-69
2024/02/14 06:18:04;;;;;;;18.33;6.90;;;;;;;2.00;100.00;97261.13;4979731;28;20061;-70
2024/02/14 06:20:29;;;;;;;11.93;6.53;;;;;;;2.14;100.00;97261.16;5001697;28;20112;-67
2024/02/14 06:22:54;;;;;;;11.98;7.13;;;;;;;2.21;100.00;97267.00;5002902;28;20516;-69
2024/02/14 06:25:20;;;;;;;11.40;6.57;;;;;;;2.26;100.00;97278.50;4995048;28;21131;-70
2024/02/14 06:27:46;;;;;;;15.82;7.00;;;;;;;2.33;100.00;97274.63;5009702;28;20041;-68
2024/02/14 06:30:12;;;;;;;13.82;6.93;;;;;;;2.38;100.00;97269.91;4997736;28;20030;-69
2024/02/14 06:32:37;;;;;;;12.48;6.97;;;;;;;2.51;100.00;97272.94;5017410;28;20050;-69
2024/02/14 06:35:03;;;;;;;12.10;6.57;;;;;;;2.57;100.00;97267.09;5029237;28;20037;-68
2024/02/14 06:37:28;;;;;;;13.60;6.68;;;;;;;2.74;100.00;97276.53;5019890;28;20046;-67
2024/02/14 06:39:54;;;;;;;13.38;6.60;;;;;;;2.66;100.00;97284.22;5012408;28;20133;-68
2024/02/14 06:42:19;;;;;;;11.88;5.90;;;;;;;2.65;100.00;97279.16;5019925;28;20040;-68
2024/02/14 06:44:45;;;;;;;13.88;7.07;;;;;;;2.56;100.00;97287.16;5014380;28;20034;-68
2024/02/14 06:47:11;;;;;;;12.63;6.50;;;;;;;2.56;100.00;97286.38;5015019;28;20042;-68
2024/02/14 06:49:36;;;;;;;10.23;6.32;;;;;;;2.64;100.00;97310.78;5003969;28;20472;-68
2024/02/14 06:52:02;;;;;;;13.98;6.25;;;;;;;2.84;100.00;97320.41;5009942;28;20079;-68
2024/02/14 06:54:27;;;;;;;13.38;6.47;;;;;;;2.96;100.00;97300.97;5018547;28;20126;-69
2024/02/14 06:56:52;;;;;;;11.10;6.90;;;;;;;2.84;100.00;97300.66;5019719;28;20045;-69
2024/02/14 06:59:18;;;;;;;12.95;7.22;;;;;;;2.81;100.00;97302.09;5007401;28;20053;-68
2024/02/14 07:01:43;;;;;;;10.77;7.00;;;;;;;2.78;100.00;97299.19;5022945;28;20041;-68
2024/02/14 07:04:09;;;;;;;19.88;10.52;;;;;;;2.72;100.00;97303.06;5007086;28;20140;-67
2024/02/14 07:06:34;;;;;;;26.88;14.48;;;;;;;2.82;100.00;97317.19;5014782;28;20136;-67
2024/02/14 07:09:00;;;;;;;20.30;11.65;;;;;;;3.00;100.00;97314.69;5014849;28;20116;-67
2024/02/14 07:11:25;;;;;;;20.10;7.70;;;;;;;3.11;100.00;97315.28;5017835;28;20047;-68
2024/02/14 07:13:50;;;;;;;15.23;7.75;;;;;;;3.11;100.00;97312.56;5021625;28;20046;-69
2024/02/14 07:16:16;;;;;;;15.80;9.43;;;;;;;3.13;100.00;97322.00;4987977;28;20061;-69
2024/02/14 07:18:41;;;;;;;20.02;9.48;;;;;;;3.29;100.00;97321.69;5012509;28;20077;-68
2024/02/14 07:21:07;;;;;;;33.13;16.42;;;;;;;3.24;100.00;97323.41;4997548;28;20053;-67
2024/02/14 07:23:33;;;;;;;19.80;9.60;;;;;;;3.00;100.00;97320.09;5014745;28;20096;-69
2024/02/14 07:26:00;;;;;;;16.60;8.10;;;;;;;2.65;100.00;97317.81;4979831;28;20114;-67
2024/02/14 07:28:26;;;;;;;15.85;8.10;;;;;;;2.41;100.00;97307.19;5017520;28;20045;-69
2024/02/14 07:30:51;;;;;;;17.63;8.40;;;;;;;2.27;100.00;97314.47;5004409;28;20034;-68
2024/02/14 07:33:17;;;;;;;18.90;12.70;;;;;;;2.42;100.00;97319.59;5018710;28;20045;-68
2024/02/14 07:35:42;;;;;;;19.13;11.63;;;;;;;2.72;100.00;97325.53;5031928;28;20045;-70
2024/02/14 07:38:08;;;;;;;19.65;11.13;;;;;;;3.09;100.00;97320.22;5009311;28;20072;-70
2024/02/14 07:40:34;;;;;;;34.83;13.48;;;;;;;3.51;100.00;97320.91;5028006;28;20073;-70
2024/02/14 07:43:00;;;;;;;33.05;13.18;;;;;;;3.82;100.00;97312.91;5005077;28;20108;-71
2024/02/14 07:45:25;;;;;;;25.95;12.05;;;;;;;4.01;100.00;97304.56;4994946;28;20048;-67
2024/02/14 07:47:51;;;;;;;25.63;11.73;;;;;;;4.24;100.00;97309.97;5011519;28;20042;-68
2024/02/14 07:50:17;;;;;;;31.73;11.68;;;;;;;4.45;100.00;97304.81;5006861;28;20048;-69
2024/02/14 07:52:45;;;;;;;43.20;25.25;;;;;;;4.16;100.00;97297.97;5021258;28;20045;-70
2024/02/14 07:55:14;;;;;;;19.45;10.35;;;;;;;3.94;100.00;97279.81;5003273;28;20041;-68
2024/02/14 07:57:41;;;;;;;15.13;8.77;;;;;;;4.17;100.00;97291.44;5017214;28;20041;-69
2024/02/14 08:00:08;;;;;;;17.38;9.40;;;;;;;4.46;100.00;97288.22;4999108;28;20092;-69
2024/02/14 08:02:34;;;;;;;13.75;7.35;;;;;;;4.57;100.00;97295.00;4988591;28;20376;-69
2024/02/14 08:05:00;;;;;;;19.15;13.13;;;;;;;4.92;100.00;97299.75;5023797;28;20045;-69
2024/02/14 08:07:25;;;;;;;21.10;10.38;;;;;;;5.47;100.00;97303.84;5022462;28;20042;-69
2024/02/14 08:09:51;;;;;;;20.45;7.30;;;;;;;5.89;100.00;97307.69;5007055;28;20373;-69
2024/02/14 08:12:16;;;;;;;16.08;7.03;;;;;;;5.98;100.00;97307.72;5001683;28;20037;-69
2024/02/14 08:14:41;;;;;;;14.55;7.30;;;;;;;6.13;100.00;97304.50;5012417;28;20041;-70
2024/02/14 08:17:07;;;;;;;21.00;8.80;;;;;;;6.25;100.00;97298.41;5020028;28;20392;-69
2024/02/14 08:19:32;;;;;;;17.17;7.93;;;;;;;6.29;100.00;97295.81;5014962;28;20050;-69
2024/02/14 08:22:00;;;;;;;13.32;6.53;;;;;;;6.16;100.00;97291.34;5014149;28;20084;-69
2024/02/14 08:24:26;;;;;;;9.98;6.35;;;;;;;5.70;100.00;97299.06;4999730;28;20044;-70
2024/02/14 08:26:52;;;;;;;48.33;28.30;;;;;;;5.19;100.00;97303.34;5011291;28;20049;-69
2024/02/14 08:29:18;;;;;;;14.15;9.20;;;;;;;5.68;100.00;97301.31;5009662;28;20400;-69
2024/02/14 08:31:43;;;;;;;12.07;6.50;;;;;;;5.98;100.00;97313.16;5021802;28;20528;-69
2024/02/14 08:34:09;;;;;;;14.70;6.68;;;;;;;5.73;100.00;97312.81;5011767;28;20087;-70
2024/02/14 08:36:40;;;;;;;10.68;4.28;;;;;;;5.47;100.00;97312.78;4999017;28;20103;-68
2024/02/14 08:39:10;;;;;;;9.23;4.63;;;;;;;5.49;100.00;97309.75;5010550;28;20171;-68
2024/02/14 08:41:43;;;;;;;7.00;3.13;;;;;;;5.23;100.00;97309.72;5005655;28;20046;-70
2024/02/14 08:44:08;;;;;;;4.57;2.65;;;;;;;5.43;100.00;97306.41;4999631;28;20046;-71
2024/02/14 08:46:34;;;;;;;6.00;2.75;;;;;;;5.67;100.00;97308.66;5009645;28;20068;-70
2024/02/14 08:49:02;;;;;;;7.30;2.58;;;;;;;5.61;100.00;97306.41;4986182;28;20044;-70
2024/02/14 08:51:28;;;;;;;6.15;2.63;;;;;;;5.69;100.00;97303.72;5021959;28;20042;-69
2024/02/14 08:53:55;;;;;;;6.07;2.60;;;;;;;5.82;100.00;97293.00;4989613;28;20037;-69
2024/02/14 08:56:22;;;;;;;8.15;2.40;;;;;;;5.86;100.00;97299.38;5019452;28;20216;-69
2024/02/14 08:58:48;;;;;;;4.65;2.55;;;;;;;5.80;100.00;97290.59;5009388;28;20056;-69
2024/02/14 09:01:14;;;;;;;11.98;3.25;;;;;;;6.03;100.00;97299.41;5023530;28;20132;-69
2024/02/14 09:03:39;;;;;;;7.45;4.38;;;;;;;6.23;100.00;97294.38;5024618;28;20092;-68
2024/02/14 09:06:05;;;;;;;5.18;3.03;;;;;;;6.11;100.00;97305.94;5000993;28;20056;-69
2024/02/14 09:08:30;;;;;;;7.75;3.28;;;;;;;6.17;100.00;97304.63;5027554;28;20041;-69
2024/02/14 09:10:58;;;;;;;8.95;2.92;;;;;;;6.35;100.00;97310.06;5023240;28;20049;-70
2024/02/14 09:13:24;;;;;;;6.95;3.15;;;;;;;6.47;100.00;97316.41;5020391;28;20042;-70
2024/02/14 09:15:50;;;;;;;5.20;2.90;;;;;;;6.71;100.00;97315.06;5025245;28;20052;-71
2024/02/14 09:18:18;;;;;;;6.72;3.08;;;;;;;6.97;100.00;97312.22;5005251;28;20172;-70
2024/02/14 09:20:46;;;;;;;9.75;4.28;;;;;;;7.22;100.00;97317.84;4996742;28;20072;-70
2024/02/14 09:23:13;;;;;;;12.00;6.43;;;;;;;7.77;100.00;97314.13;5021832;28;20041;-71
2024/02/14 09:25:38;;;;;;;4.57;2.42;;;;;;;7.93;100.00;97316.25;5011407;28;20041;-71
2024/02/14 09:28:05;;;;;;;3.88;2.67;;;;;;;8.24;100.00;97313.84;5023001;28;20141;-69
2024/02/14 09:30:31;;;;;;;7.78;3.67;;;;;;;8.26;99.57;97313.53;5024270;28;20619;-72
2024/02/14 09:32:57;;;;;;;8.88;3.78;;;;;;;7.84;100.00;97313.59;5026010;28;20045;-70
2024/02/14 09:35:24;;;;;;;5.13;2.15;;;;;;;7.70;98.71;97316.59;5027891;28;20297;-70
2024/02/14 09:37:50;;;;;;;3.70;2.17;;;;;;;7.72;98.81;97314.31;5029112;28;20409;-71
2024/02/14 09:40:15;;;;;;;8.88;3.72;;;;;;;8.02;97.78;97325.94;5018949;28;20204;-71
2024/02/14 09:42:48;;;;;;;13.93;3.90;;;;;;;8.49;95.62;97324.09;5024562;28;20699;-71
2024/02/14 09:45:14;;;;;;;8.18;3.10;;;;;;;8.58;91.52;97314.66;5023608;28;20400;-70
2024/02/14 09:47:40;;;;;;;5.28;2.60;;;;;;;8.48;93.29;97320.56;5022895;28;20033;-71
2024/02/14 09:50:07;;;;;;;5.30;2.45;;;;;;;8.92;93.17;97331.00;5019075;28;20488;-71
2024/02/14 09:52:33;;;;;;;7.85;2.42;;;;;;;9.61;86.53;97329.25;5023491;28;20041;-71
2024/02/14 09:54:59;;;;;;;7.95;2.83;;;;;;;10.21;82.21;97340.38;5026638;28;20056;-70
2024/02/14 09:57:26;;;;;;;8.00;2.47;;;;;;;10.28;78.04;97337.03;5018663;28;20041;-71
2024/02/14 09:59:53;;;;;;;7.28;2.67;;;;;;;10.93;75.45;97328.59;5022509;28;20107;-71
2024/02/14 10:02:19;;;;;;;5.70;2.20;;;;;;;11.29;73.31;97329.47;5000108;28;20535;-71
2024/02/14 10:04:44;;;;;;;6.32;2.17;;;;;;;11.39;70.22;97326.16;5025014;28;20092;-71
2024/02/14 10:07:09;;;;;;;4.43;1.85;;;;;;;11.18;70.92;97328.41;5028158;28;20099;-69
2024/02/14 10:09:41;;;;;;;9.60;2.90;;;;;;;11.31;69.54;97332.66;5024143;28;20051;-69
2024/02/14 10:12:08;;;;;;;6.20;1.88;;;;;;;11.27;67.96;97327.06;5019488;28;20520;-69
2024/02/14 10:14:35;;;;;;;6.45;2.45;;;;;;;11.38;67.61;97326.50;5026683;28;20204;-70
2024/02/14 10:17:01;;;;;;;7.75;2.15;;;;;;;11.82;65.77;97324.38;5022558;28;20080;-69
2024/02/14 10:19:26;;;;;;;5.65;2.28;;;;;;;12.08;65.71;97322.19;5020684;28;20146;-70
2024/02/14 10:22:05;;;;;;;5.32;2.20;;;;;;;12.18;64.89;97322.41;5031043;28;20411;-72
2024/02/14 10:24:31;;;;;;;23.20;3.00;;;;;;;12.03;62.89;97326.81;5027672;28;20052;-70
2024/02/14 10:26:59;;;;;;;15.10;2.95;;;;;;;11.56;64.83;97330.47;5030351;28;20041;-68
2024/02/14 10:29:27;;;;;;;13.98;4.40;;;;;;;12.07;63.34;97326.88;5023157;28;20109;-70
2024/02/14 10:31:53;;;;;;;7.55;2.13;;;;;;;12.94;60.57;97334.78;5032117;28;20045;-70
2024/02/14 10:34:23;;;;;;;5.15;2.30;;;;;;;12.94;60.95;97319.06;5017970;28;20036;-69
2024/02/14 10:36:51;;;;;;;4.38;1.67;;;;;;;13.45;57.41;97339.97;5032294;28;20083;-70
2024/02/14 10:39:19;;;;;;;4.43;2.20;;;;;;;13.56;55.80;97337.38;5018054;28;20049;-70
2024/02/14 10:41:44;;;;;;;22.95;3.25;;;;;;;13.62;56.03;97335.09;5022801;28;20045;-69
2024/02/14 10:44:11;;;;;;;5.75;1.80;;;;;;;13.29;53.07;97333.78;5020555;28;20048;-70
2024/02/14 10:46:37;;;;;;;11.07;2.78;;;;;;;13.21;51.96;97343.88;5030331;28;20045;-70
2024/02/14 10:49:06;;;;;;;11.13;2.40;;;;;;;13.14;52.68;97330.00;5026092;28;20051;-68
2024/02/14 10:51:34;;;;;;;9.05;2.03;;;;;;;12.74;53.41;97326.56;5025454;28;20044;-69
2024/02/14 10:54:05;;;;;;;8.07;1.80;;;;;;;12.90;53.82;97331.19;5022465;28;20041;-70
2024/02/14 10:56:32;;;;;;;8.40;1.98;;;;;;;12.68;52.92;97327.28;5022637;28;20053;-71
2024/02/14 10:59:00;;;;;;;8.70;2.40;;;;;;;12.58;53.73;97334.13;5026523;28;20053;-69
2024/02/14 11:01:30;;;;;;;8.18;2.17;;;;;;;12.31;54.79;97328.53;5021182;28;20041;-71
2024/02/14 11:03:58;;;;;;;8.30;2.78;;;;;;;12.57;55.00;97325.13;5023327;28;20034;-71
2024/02/14 11:06:24;;;;;;;6.88;2.47;;;;;;;12.56;54.39;97323.50;5017195;28;20050;-70
2024/02/14 11:09:07;;;;;;;16.05;2.70;;;;;;;12.51;56.01;97325.75;5017710;28;20072;-71
2024/02/14 11:11:33;;;;;;;6.85;2.40;;;;;;;12.48;55.76;97326.47;5008148;28;20037;-70
2024/02/14 11:13:59;;;;;;;4.72;2.00;;;;;;;12.20;56.01;97327.53;5022088;28;20041;-69
2024/02/14 11:16:28;;;;;;;9.05;2.45;;;;;;;11.90;58.01;97322.59;5017229;28;20119;-69
2024/02/14 11:19:07;;;;;;;6.72;2.25;;;;;;;11.82;58.67;97321.63;5026331;28;20711;-71
2024/02/14 11:21:35;;;;;;;15.07;3.88;;;;;;;12.05;56.55;97321.75;5022428;28;20076;-72